FFA weather

First Flight Airport
Kill Devil Hills, North Carolina, United States

Public forecast

Using degrees Fahrenheit for public forecast. Weather courtesy of forecast.io.

METAR (pilot weather report)

Retrieved 2019/02/19 22:40 UTC (0 seconds ago):

KFFA 192240Z AUTO 02006KT 10SM CLR 03/M04 A3059 RMK AO2 T00291037

TAF (pilot weather forecast)

Closest forecast is Elizabeth City Regional Airport & Coast Guard Air Station, 28.4 nm (52.6 km) WNW. Retrieved 2019/02/19 18:42 UTC (4 hours ago):

TAF KECG 191739Z 1918/2018 03007KT P6SM SKC FM192000 04008KT P6SM BKN250 FM200300 04006KT P6SM OVC060 FM200900 05009KT P6SM -RA OVC050 FM201500 07012G20KT 6SM -RA BR OVC025